sensor_id;sensor_type;location;lat;lon;timestamp;P1;durP1;ratioP1;P2;durP2;ratioP2
79570;SDS011;69034;49.444;7.758;2024-03-23T00:56:03;5.38;;;2.38;;
79570;SDS011;69034;49.444;7.758;2024-03-23T01:00:05;7.20;;;2.92;;
79570;SDS011;69034;49.444;7.758;2024-03-23T01:04:06;7.00;;;3.05;;
79570;SDS011;69034;49.444;7.758;2024-03-23T01:08:06;7.70;;;3.08;;
79570;SDS011;69034;49.444;7.758;2024-03-23T01:12:07;5.45;;;2.95;;
79570;SDS011;69034;49.444;7.758;2024-03-23T01:16:07;5.90;;;2.55;;
79570;SDS011;69034;49.444;7.758;2024-03-23T01:20:08;9.90;;;4.15;;
79570;SDS011;69034;49.444;7.758;2024-03-23T01:24:09;5.65;;;2.55;;
79570;SDS011;69034;49.444;7.758;2024-03-23T01:28:10;3.78;;;2.03;;
79570;SDS011;69034;49.444;7.758;2024-03-23T01:32:11;7.43;;;3.05;;
79570;SDS011;69034;49.444;7.758;2024-03-23T01:36:12;10.90;;;3.72;;
79570;SDS011;69034;49.444;7.758;2024-03-23T01:40:12;5.10;;;2.00;;
79570;SDS011;69034;49.444;7.758;2024-03-23T01:44:16;6.47;;;3.35;;
79570;SDS011;69034;49.444;7.758;2024-03-23T01:48:17;6.65;;;2.47;;
79570;SDS011;69034;49.444;7.758;2024-03-23T01:52:18;4.03;;;1.85;;
79570;SDS011;69034;49.444;7.758;2024-03-23T01:56:18;5.20;;;2.30;;
79570;SDS011;69034;49.444;7.758;2024-03-23T02:00:19;4.68;;;2.42;;
79570;SDS011;69034;49.444;7.758;2024-03-23T02:04:20;9.18;;;4.00;;
79570;SDS011;69034;49.444;7.758;2024-03-23T02:08:21;4.88;;;1.95;;
79570;SDS011;69034;49.444;7.758;2024-03-23T02:12:23;5.45;;;2.88;;
79570;SDS011;69034;49.444;7.758;2024-03-23T02:16:24;8.05;;;3.50;;
79570;SDS011;69034;49.444;7.758;2024-03-23T02:20:24;5.05;;;2.35;;
79570;SDS011;69034;49.444;7.758;2024-03-23T02:24:25;8.13;;;2.63;;
79570;SDS011;69034;49.444;7.758;2024-03-23T02:28:25;8.07;;;3.45;;
79570;SDS011;69034;49.444;7.758;2024-03-23T02:32:26;9.18;;;4.40;;
79570;SDS011;69034;49.444;7.758;2024-03-23T02:36:27;7.78;;;3.97;;
79570;SDS011;69034;49.444;7.758;2024-03-23T02:40:28;8.50;;;3.03;;
79570;SDS011;69034;49.444;7.758;2024-03-23T02:44:29;9.77;;;3.75;;
79570;SDS011;69034;49.444;7.758;2024-03-23T02:48:32;10.93;;;5.55;;
79570;SDS011;69034;49.444;7.758;2024-03-23T02:52:33;7.15;;;3.72;;
79570;SDS011;69034;49.444;7.758;2024-03-23T02:56:34;11.13;;;5.28;;
79570;SDS011;69034;49.444;7.758;2024-03-23T03:00:35;13.00;;;5.82;;
79570;SDS011;69034;49.444;7.758;2024-03-23T03:04:36;10.63;;;4.75;;
79570;SDS011;69034;49.444;7.758;2024-03-23T03:08:36;9.10;;;4.75;;
79570;SDS011;69034;49.444;7.758;2024-03-23T03:12:37;13.88;;;6.60;;
79570;SDS011;69034;49.444;7.758;2024-03-23T03:16:38;10.02;;;4.78;;
79570;SDS011;69034;49.444;7.758;2024-03-23T03:20:39;13.45;;;5.88;;
79570;SDS011;69034;49.444;7.758;2024-03-23T03:24:40;10.95;;;5.25;;
79570;SDS011;69034;49.444;7.758;2024-03-23T03:28:40;13.52;;;4.95;;
79570;SDS011;69034;49.444;7.758;2024-03-23T03:32:41;11.43;;;5.03;;
79570;SDS011;69034;49.444;7.758;2024-03-23T03:36:42;12.43;;;4.88;;
79570;SDS011;69034;49.444;7.758;2024-03-23T03:40:42;13.07;;;5.55;;
79570;SDS011;69034;49.444;7.758;2024-03-23T03:44:43;8.85;;;4.60;;
79570;SDS011;69034;49.444;7.758;2024-03-23T03:48:43;7.97;;;4.35;;
79570;SDS011;69034;49.444;7.758;2024-03-23T03:52:46;8.30;;;3.13;;
79570;SDS011;69034;49.444;7.758;2024-03-23T03:56:47;8.55;;;3.65;;
79570;SDS011;69034;49.444;7.758;2024-03-23T04:00:47;6.25;;;2.53;;
79570;SDS011;69034;49.444;7.758;2024-03-23T04:04:48;6.20;;;2.72;;
79570;SDS011;69034;49.444;7.758;2024-03-23T04:08:48;7.22;;;3.22;;
79570;SDS011;69034;49.444;7.758;2024-03-23T04:12:49;7.22;;;2.75;;
79570;SDS011;69034;49.444;7.758;2024-03-23T04:16:50;6.03;;;2.17;;
79570;SDS011;69034;49.444;7.758;2024-03-23T04:20:51;3.72;;;1.83;;
79570;SDS011;69034;49.444;7.758;2024-03-23T04:24:57;4.20;;;1.90;;
79570;SDS011;69034;49.444;7.758;2024-03-23T04:28:58;3.40;;;1.52;;
79570;SDS011;69034;49.444;7.758;2024-03-23T04:32:59;3.15;;;1.35;;
79570;SDS011;69034;49.444;7.758;2024-03-23T04:37:00;5.00;;;1.92;;
79570;SDS011;69034;49.444;7.758;2024-03-23T04:41:01;3.85;;;1.33;;
79570;SDS011;69034;49.444;7.758;2024-03-23T04:45:02;3.47;;;1.50;;
79570;SDS011;69034;49.444;7.758;2024-03-23T04:49:03;1.88;;;0.60;;
79570;SDS011;69034;49.444;7.758;2024-03-23T04:53:04;2.70;;;1.25;;
79570;SDS011;69034;49.444;7.758;2024-03-23T04:57:05;1.58;;;0.77;;
79570;SDS011;69034;49.444;7.758;2024-03-23T05:01:05;0.85;;;0.47;;
79570;SDS011;69034;49.444;7.758;2024-03-23T05:05:06;1.80;;;0.73;;
79570;SDS011;69034;49.444;7.758;2024-03-23T05:09:07;2.47;;;0.82;;
79570;SDS011;69034;49.444;7.758;2024-03-23T05:13:11;2.50;;;0.73;;
79570;SDS011;69034;49.444;7.758;2024-03-23T05:17:12;1.65;;;0.50;;
79570;SDS011;69034;49.444;7.758;2024-03-23T05:21:12;1.63;;;0.60;;
79570;SDS011;69034;49.444;7.758;2024-03-23T05:25:13;2.00;;;0.80;;
79570;SDS011;69034;49.444;7.758;2024-03-23T05:29:15;1.17;;;0.40;;
79570;SDS011;69034;49.444;7.758;2024-03-23T05:33:18;1.15;;;0.40;;
79570;SDS011;69034;49.444;7.758;2024-03-23T05:37:19;2.40;;;0.65;;
79570;SDS011;69034;49.444;7.758;2024-03-23T05:41:20;0.55;;;0.25;;
79570;SDS011;69034;49.444;7.758;2024-03-23T05:45:20;2.10;;;0.50;;
79570;SDS011;69034;49.444;7.758;2024-03-23T05:49:22;1.00;;;0.30;;
79570;SDS011;69034;49.444;7.758;2024-03-23T05:53:23;1.92;;;0.30;;
79570;SDS011;69034;49.444;7.758;2024-03-23T05:57:24;1.02;;;0.40;;
79570;SDS011;69034;49.444;7.758;2024-03-23T06:01:25;0.32;;;0.17;;
79570;SDS011;69034;49.444;7.758;2024-03-23T06:05:28;0.20;;;0.10;;
79570;SDS011;69034;49.444;7.758;2024-03-23T06:09:29;0.38;;;0.20;;
79570;SDS011;69034;49.444;7.758;2024-03-23T06:13:31;0.20;;;0.10;;
79570;SDS011;69034;49.444;7.758;2024-03-23T06:17:33;0.40;;;0.20;;
79570;SDS011;69034;49.444;7.758;2024-03-23T06:21:34;1.42;;;0.40;;
79570;SDS011;69034;49.444;7.758;2024-03-23T06:25:35;0.43;;;0.20;;
79570;SDS011;69034;49.444;7.758;2024-03-23T06:29:35;0.15;;;0.10;;
79570;SDS011;69034;49.444;7.758;2024-03-23T06:33:36;0.35;;;0.20;;
79570;SDS011;69034;49.444;7.758;2024-03-23T06:37:37;0.17;;;0.17;;
79570;SDS011;69034;49.444;7.758;2024-03-23T06:41:38;0.65;;;0.30;;
79570;SDS011;69034;49.444;7.758;2024-03-23T06:45:39;0.75;;;0.25;;
79570;SDS011;69034;49.444;7.758;2024-03-23T06:49:40;1.38;;;0.50;;
79570;SDS011;69034;49.444;7.758;2024-03-23T06:53:40;0.77;;;0.20;;
79570;SDS011;69034;49.444;7.758;2024-03-23T06:57:41;0.75;;;0.32;;
79570;SDS011;69034;49.444;7.758;2024-03-23T07:01:41;0.73;;;0.40;;
79570;SDS011;69034;49.444;7.758;2024-03-23T07:05:42;1.83;;;0.50;;
79570;SDS011;69034;49.444;7.758;2024-03-23T07:09:43;1.77;;;0.32;;
79570;SDS011;69034;49.444;7.758;2024-03-23T07:13:43;3.80;;;0.70;;
79570;SDS011;69034;49.444;7.758;2024-03-23T07:17:46;1.75;;;0.68;;
79570;SDS011;69034;49.444;7.758;2024-03-23T07:21:50;1.98;;;0.57;;
79570;SDS011;69034;49.444;7.758;2024-03-23T07:26:00;5.18;;;1.08;;
79570;SDS011;69034;49.444;7.758;2024-03-23T07:30:02;3.40;;;1.05;;
79570;SDS011;69034;49.444;7.758;2024-03-23T07:34:03;3.10;;;0.98;;
79570;SDS011;69034;49.444;7.758;2024-03-23T07:38:03;6.45;;;1.23;;
79570;SDS011;69034;49.444;7.758;2024-03-23T07:42:06;2.40;;;1.08;;
79570;SDS011;69034;49.444;7.758;2024-03-23T07:46:07;2.85;;;1.00;;
79570;SDS011;69034;49.444;7.758;2024-03-23T07:50:07;4.05;;;1.10;;
79570;SDS011;69034;49.444;7.758;2024-03-23T07:54:08;8.23;;;1.70;;
79570;SDS011;69034;49.444;7.758;2024-03-23T07:58:09;3.00;;;1.13;;
79570;SDS011;69034;49.444;7.758;2024-03-23T08:02:10;1.50;;;0.70;;
79570;SDS011;69034;49.444;7.758;2024-03-23T08:10:12;4.18;;;0.93;;
79570;SDS011;69034;49.444;7.758;2024-03-23T08:14:13;3.45;;;1.73;;
79570;SDS011;69034;49.444;7.758;2024-03-23T08:18:13;5.78;;;1.42;;
79570;SDS011;69034;49.444;7.758;2024-03-23T08:22:17;4.90;;;1.25;;
79570;SDS011;69034;49.444;7.758;2024-03-23T08:26:17;2.33;;;0.60;;
79570;SDS011;69034;49.444;7.758;2024-03-23T08:30:18;6.18;;;1.63;;
79570;SDS011;69034;49.444;7.758;2024-03-23T08:34:18;4.15;;;1.58;;
79570;SDS011;69034;49.444;7.758;2024-03-23T08:38:19;5.15;;;1.38;;
79570;SDS011;69034;49.444;7.758;2024-03-23T08:42:20;3.15;;;1.08;;
79570;SDS011;69034;49.444;7.758;2024-03-23T08:46:20;8.40;;;2.20;;
79570;SDS011;69034;49.444;7.758;2024-03-23T08:50:21;4.78;;;1.58;;
79570;SDS011;69034;49.444;7.758;2024-03-23T08:54:21;6.05;;;2.40;;
79570;SDS011;69034;49.444;7.758;2024-03-23T08:58:23;3.15;;;1.08;;
79570;SDS011;69034;49.444;7.758;2024-03-23T09:02:25;4.43;;;1.25;;
79570;SDS011;69034;49.444;7.758;2024-03-23T09:06:25;3.90;;;1.50;;
79570;SDS011;69034;49.444;7.758;2024-03-23T09:10:26;11.32;;;2.20;;
79570;SDS011;69034;49.444;7.758;2024-03-23T09:14:26;8.52;;;2.13;;
79570;SDS011;69034;49.444;7.758;2024-03-23T09:18:27;7.93;;;2.08;;
79570;SDS011;69034;49.444;7.758;2024-03-23T09:22:28;11.95;;;1.70;;
79570;SDS011;69034;49.444;7.758;2024-03-23T09:26:28;5.88;;;1.30;;
79570;SDS011;69034;49.444;7.758;2024-03-23T09:30:29;7.85;;;2.00;;
79570;SDS011;69034;49.444;7.758;2024-03-23T09:34:30;6.65;;;1.58;;
79570;SDS011;69034;49.444;7.758;2024-03-23T09:38:31;8.85;;;1.80;;
79570;SDS011;69034;49.444;7.758;2024-03-23T09:42:32;9.63;;;1.70;;
79570;SDS011;69034;49.444;7.758;2024-03-23T09:46:32;11.80;;;1.85;;
79570;SDS011;69034;49.444;7.758;2024-03-23T09:50:39;5.80;;;1.92;;
79570;SDS011;69034;49.444;7.758;2024-03-23T09:54:40;3.72;;;1.17;;
79570;SDS011;69034;49.444;7.758;2024-03-23T09:58:41;5.22;;;1.50;;
79570;SDS011;69034;49.444;7.758;2024-03-23T10:02:42;6.57;;;1.40;;
79570;SDS011;69034;49.444;7.758;2024-03-23T10:06:42;5.05;;;1.80;;
79570;SDS011;69034;49.444;7.758;2024-03-23T10:10:43;5.63;;;1.55;;
79570;SDS011;69034;49.444;7.758;2024-03-23T10:14:45;6.15;;;1.55;;
79570;SDS011;69034;49.444;7.758;2024-03-23T10:18:46;5.78;;;1.67;;
79570;SDS011;69034;49.444;7.758;2024-03-23T10:22:47;4.03;;;1.38;;
79570;SDS011;69034;49.444;7.758;2024-03-23T10:26:55;4.20;;;1.10;;
79570;SDS011;69034;49.444;7.758;2024-03-23T10:30:56;7.95;;;1.70;;
79570;SDS011;69034;49.444;7.758;2024-03-23T10:35:13;5.65;;;1.58;;
79570;SDS011;69034;49.444;7.758;2024-03-23T10:39:19;4.00;;;1.08;;
79570;SDS011;69034;49.444;7.758;2024-03-23T10:43:21;7.90;;;2.00;;
79570;SDS011;69034;49.444;7.758;2024-03-23T10:47:22;2.33;;;0.80;;
79570;SDS011;69034;49.444;7.758;2024-03-23T10:51:23;4.47;;;1.27;;
79570;SDS011;69034;49.444;7.758;2024-03-23T10:55:24;7.68;;;1.38;;
79570;SDS011;69034;49.444;7.758;2024-03-23T10:59:25;2.53;;;1.23;;
79570;SDS011;69034;49.444;7.758;2024-03-23T11:03:32;3.03;;;1.30;;
79570;SDS011;69034;49.444;7.758;2024-03-23T11:07:36;3.10;;;0.93;;
79570;SDS011;69034;49.444;7.758;2024-03-23T11:11:37;5.53;;;1.25;;
79570;SDS011;69034;49.444;7.758;2024-03-23T11:15:37;3.03;;;1.00;;
79570;SDS011;69034;49.444;7.758;2024-03-23T11:19:38;2.15;;;0.80;;
79570;SDS011;69034;49.444;7.758;2024-03-23T11:23:39;3.63;;;1.00;;
79570;SDS011;69034;49.444;7.758;2024-03-23T11:27:39;1.20;;;0.50;;
79570;SDS011;69034;49.444;7.758;2024-03-23T11:31:47;4.05;;;0.68;;
79570;SDS011;69034;49.444;7.758;2024-03-23T11:35:48;1.48;;;0.50;;
79570;SDS011;69034;49.444;7.758;2024-03-23T11:39:49;1.75;;;0.60;;
79570;SDS011;69034;49.444;7.758;2024-03-23T11:43:49;3.90;;;0.75;;
79570;SDS011;69034;49.444;7.758;2024-03-23T11:48:01;2.60;;;0.95;;
79570;SDS011;69034;49.444;7.758;2024-03-23T11:52:06;2.88;;;1.00;;
79570;SDS011;69034;49.444;7.758;2024-03-23T11:56:07;1.98;;;0.68;;
79570;SDS011;69034;49.444;7.758;2024-03-23T12:00:20;2.13;;;0.70;;
79570;SDS011;69034;49.444;7.758;2024-03-23T12:04:25;5.68;;;1.02;;
79570;SDS011;69034;49.444;7.758;2024-03-23T12:08:30;2.83;;;0.82;;
79570;SDS011;69034;49.444;7.758;2024-03-23T12:12:34;1.27;;;0.57;;
79570;SDS011;69034;49.444;7.758;2024-03-23T12:16:35;1.55;;;0.63;;
79570;SDS011;69034;49.444;7.758;2024-03-23T12:20:36;3.58;;;1.27;;
79570;SDS011;69034;49.444;7.758;2024-03-23T12:24:37;1.80;;;0.80;;
79570;SDS011;69034;49.444;7.758;2024-03-23T12:28:44;3.35;;;1.30;;
79570;SDS011;69034;49.444;7.758;2024-03-23T12:32:45;4.18;;;1.20;;
79570;SDS011;69034;49.444;7.758;2024-03-23T12:36:46;2.30;;;0.70;;
79570;SDS011;69034;49.444;7.758;2024-03-23T12:40:47;1.92;;;0.93;;
79570;SDS011;69034;49.444;7.758;2024-03-23T12:44:48;4.10;;;1.20;;
79570;SDS011;69034;49.444;7.758;2024-03-23T12:48:49;2.78;;;1.10;;
79570;SDS011;69034;49.444;7.758;2024-03-23T12:52:50;2.97;;;1.10;;
79570;SDS011;69034;49.444;7.758;2024-03-23T12:56:51;4.43;;;1.05;;
79570;SDS011;69034;49.444;7.758;2024-03-23T13:00:51;9.13;;;1.92;;
79570;SDS011;69034;49.444;7.758;2024-03-23T13:04:52;2.88;;;1.20;;
79570;SDS011;69034;49.444;7.758;2024-03-23T13:08:53;4.25;;;1.30;;
79570;SDS011;69034;49.444;7.758;2024-03-23T13:12:54;4.35;;;0.95;;
79570;SDS011;69034;49.444;7.758;2024-03-23T13:16:55;1.98;;;0.75;;
79570;SDS011;69034;49.444;7.758;2024-03-23T13:20:56;2.45;;;0.90;;
79570;SDS011;69034;49.444;7.758;2024-03-23T13:24:56;1.95;;;1.00;;
79570;SDS011;69034;49.444;7.758;2024-03-23T13:28:57;2.60;;;0.75;;
79570;SDS011;69034;49.444;7.758;2024-03-23T13:32:58;2.30;;;0.68;;
79570;SDS011;69034;49.444;7.758;2024-03-23T13:36:58;2.10;;;1.00;;
79570;SDS011;69034;49.444;7.758;2024-03-23T13:40:59;2.72;;;0.90;;
79570;SDS011;69034;49.444;7.758;2024-03-23T13:45:00;2.13;;;0.95;;
79570;SDS011;69034;49.444;7.758;2024-03-23T13:49:01;1.95;;;0.70;;
79570;SDS011;69034;49.444;7.758;2024-03-23T13:53:02;1.83;;;0.82;;
79570;SDS011;69034;49.444;7.758;2024-03-23T13:57:02;5.07;;;1.27;;
79570;SDS011;69034;49.444;7.758;2024-03-23T14:01:03;4.00;;;1.05;;
79570;SDS011;69034;49.444;7.758;2024-03-23T14:05:04;3.13;;;1.00;;
79570;SDS011;69034;49.444;7.758;2024-03-23T14:09:05;3.08;;;1.10;;
79570;SDS011;69034;49.444;7.758;2024-03-23T14:13:08;3.95;;;0.75;;
79570;SDS011;69034;49.444;7.758;2024-03-23T14:17:09;4.10;;;0.80;;
79570;SDS011;69034;49.444;7.758;2024-03-23T14:21:12;2.00;;;0.90;;
79570;SDS011;69034;49.444;7.758;2024-03-23T14:25:12;2.50;;;0.90;;
79570;SDS011;69034;49.444;7.758;2024-03-23T14:29:13;2.90;;;0.90;;
79570;SDS011;69034;49.444;7.758;2024-03-23T14:33:13;2.20;;;0.70;;
79570;SDS011;69034;49.444;7.758;2024-03-23T14:37:14;2.80;;;0.73;;
79570;SDS011;69034;49.444;7.758;2024-03-23T14:41:15;1.83;;;0.55;;
79570;SDS011;69034;49.444;7.758;2024-03-23T14:45:16;4.93;;;0.90;;
79570;SDS011;69034;49.444;7.758;2024-03-23T14:49:17;3.00;;;0.85;;
79570;SDS011;69034;49.444;7.758;2024-03-23T14:53:17;2.13;;;0.60;;
79570;SDS011;69034;49.444;7.758;2024-03-23T14:57:18;1.65;;;0.60;;
79570;SDS011;69034;49.444;7.758;2024-03-23T15:01:20;1.98;;;0.73;;
79570;SDS011;69034;49.444;7.758;2024-03-23T15:05:21;2.58;;;0.65;;
79570;SDS011;69034;49.444;7.758;2024-03-23T15:09:21;2.75;;;0.60;;
79570;SDS011;69034;49.444;7.758;2024-03-23T15:13:22;1.70;;;0.52;;
79570;SDS011;69034;49.444;7.758;2024-03-23T15:17:25;1.35;;;0.55;;
79570;SDS011;69034;49.444;7.758;2024-03-23T15:21:26;3.25;;;0.82;;
79570;SDS011;69034;49.444;7.758;2024-03-23T15:25:26;1.90;;;0.70;;
79570;SDS011;69034;49.444;7.758;2024-03-23T15:29:27;1.38;;;0.60;;
79570;SDS011;69034;49.444;7.758;2024-03-23T15:33:28;2.95;;;0.70;;
79570;SDS011;69034;49.444;7.758;2024-03-23T15:37:28;2.50;;;0.77;;
79570;SDS011;69034;49.444;7.758;2024-03-23T15:41:31;1.60;;;0.50;;
79570;SDS011;69034;49.444;7.758;2024-03-23T15:45:34;0.95;;;0.30;;
79570;SDS011;69034;49.444;7.758;2024-03-23T15:49:34;1.77;;;0.40;;
79570;SDS011;69034;49.444;7.758;2024-03-23T15:53:36;1.52;;;0.60;;
79570;SDS011;69034;49.444;7.758;2024-03-23T15:57:36;2.30;;;0.52;;
79570;SDS011;69034;49.444;7.758;2024-03-23T16:01:37;1.50;;;0.20;;
79570;SDS011;69034;49.444;7.758;2024-03-23T16:05:38;0.68;;;0.40;;
79570;SDS011;69034;49.444;7.758;2024-03-23T16:09:39;2.42;;;0.65;;
79570;SDS011;69034;49.444;7.758;2024-03-23T16:13:39;1.90;;;0.68;;
79570;SDS011;69034;49.444;7.758;2024-03-23T16:17:40;2.72;;;0.75;;
79570;SDS011;69034;49.444;7.758;2024-03-23T16:21:41;2.47;;;0.80;;
79570;SDS011;69034;49.444;7.758;2024-03-23T16:25:46;2.97;;;0.73;;
79570;SDS011;69034;49.444;7.758;2024-03-23T16:29:57;1.25;;;0.50;;
79570;SDS011;69034;49.444;7.758;2024-03-23T16:33:58;1.38;;;0.50;;
79570;SDS011;69034;49.444;7.758;2024-03-23T16:37:59;0.90;;;0.35;;
79570;SDS011;69034;49.444;7.758;2024-03-23T16:41:59;2.03;;;0.45;;
79570;SDS011;69034;49.444;7.758;2024-03-23T16:46:04;1.20;;;0.40;;
79570;SDS011;69034;49.444;7.758;2024-03-23T16:50:10;3.83;;;0.63;;
79570;SDS011;69034;49.444;7.758;2024-03-23T16:54:11;2.25;;;1.05;;
79570;SDS011;69034;49.444;7.758;2024-03-23T16:58:12;1.50;;;0.63;;
79570;SDS011;69034;49.444;7.758;2024-03-23T17:02:12;3.33;;;0.90;;
79570;SDS011;69034;49.444;7.758;2024-03-23T17:06:13;1.50;;;0.50;;
79570;SDS011;69034;49.444;7.758;2024-03-23T17:10:15;3.30;;;1.13;;
79570;SDS011;69034;49.444;7.758;2024-03-23T17:14:15;3.10;;;1.23;;
79570;SDS011;69034;49.444;7.758;2024-03-23T17:18:16;4.10;;;0.75;;
79570;SDS011;69034;49.444;7.758;2024-03-23T17:22:16;2.70;;;0.90;;
79570;SDS011;69034;49.444;7.758;2024-03-23T17:26:17;3.88;;;1.05;;
79570;SDS011;69034;49.444;7.758;2024-03-23T17:30:19;9.93;;;6.43;;
79570;SDS011;69034;49.444;7.758;2024-03-23T17:34:20;11.70;;;7.15;;
79570;SDS011;69034;49.444;7.758;2024-03-23T17:38:24;10.20;;;6.38;;
79570;SDS011;69034;49.444;7.758;2024-03-23T17:42:25;8.32;;;3.92;;
79570;SDS011;69034;49.444;7.758;2024-03-23T17:46:26;8.57;;;3.38;;
79570;SDS011;69034;49.444;7.758;2024-03-23T17:50:27;5.95;;;2.88;;
79570;SDS011;69034;49.444;7.758;2024-03-23T17:54:27;4.22;;;2.55;;
79570;SDS011;69034;49.444;7.758;2024-03-23T17:58:29;3.80;;;2.08;;
79570;SDS011;69034;49.444;7.758;2024-03-23T18:02:30;4.28;;;2.30;;
79570;SDS011;69034;49.444;7.758;2024-03-23T18:06:31;10.45;;;3.40;;
79570;SDS011;69034;49.444;7.758;2024-03-23T18:10:31;8.25;;;4.00;;
79570;SDS011;69034;49.444;7.758;2024-03-23T18:14:32;7.40;;;3.25;;
79570;SDS011;69034;49.444;7.758;2024-03-23T18:18:33;18.35;;;6.22;;
79570;SDS011;69034;49.444;7.758;2024-03-23T18:22:33;31.17;;;11.25;;
79570;SDS011;69034;49.444;7.758;2024-03-23T18:26:34;46.17;;;18.35;;
79570;SDS011;69034;49.444;7.758;2024-03-23T18:30:35;12.02;;;4.97;;
79570;SDS011;69034;49.444;7.758;2024-03-23T18:34:36;4.65;;;2.28;;
79570;SDS011;69034;49.444;7.758;2024-03-23T18:38:37;4.50;;;1.63;;
79570;SDS011;69034;49.444;7.758;2024-03-23T18:42:38;17.05;;;6.82;;
79570;SDS011;69034;49.444;7.758;2024-03-23T18:46:41;15.82;;;5.60;;
79570;SDS011;69034;49.444;7.758;2024-03-23T18:50:42;9.65;;;2.60;;
79570;SDS011;69034;49.444;7.758;2024-03-23T18:54:43;8.55;;;3.55;;
79570;SDS011;69034;49.444;7.758;2024-03-23T18:58:44;12.35;;;4.30;;
79570;SDS011;69034;49.444;7.758;2024-03-23T19:02:44;22.92;;;7.88;;
79570;SDS011;69034;49.444;7.758;2024-03-23T19:06:45;22.25;;;7.13;;
79570;SDS011;69034;49.444;7.758;2024-03-23T19:10:52;19.23;;;7.60;;
79570;SDS011;69034;49.444;7.758;2024-03-23T19:14:57;6.35;;;2.50;;
79570;SDS011;69034;49.444;7.758;2024-03-23T19:18:57;11.70;;;3.28;;
79570;SDS011;69034;49.444;7.758;2024-03-23T19:22:59;23.05;;;6.82;;
79570;SDS011;69034;49.444;7.758;2024-03-23T19:26:59;27.77;;;8.65;;
79570;SDS011;69034;49.444;7.758;2024-03-23T19:31:01;5.57;;;2.47;;
79570;SDS011;69034;49.444;7.758;2024-03-23T19:35:02;11.13;;;4.13;;
79570;SDS011;69034;49.444;7.758;2024-03-23T19:39:04;13.57;;;3.42;;
79570;SDS011;69034;49.444;7.758;2024-03-23T19:43:04;13.00;;;4.13;;
79570;SDS011;69034;49.444;7.758;2024-03-23T19:47:06;10.48;;;4.28;;
79570;SDS011;69034;49.444;7.758;2024-03-23T19:51:07;4.38;;;1.70;;
79570;SDS011;69034;49.444;7.758;2024-03-23T19:55:08;8.45;;;2.67;;
79570;SDS011;69034;49.444;7.758;2024-03-23T19:59:09;3.53;;;1.33;;
79570;SDS011;69034;49.444;7.758;2024-03-23T20:03:10;4.88;;;1.70;;
79570;SDS011;69034;49.444;7.758;2024-03-23T20:07:11;4.28;;;2.30;;
79570;SDS011;69034;49.444;7.758;2024-03-23T20:11:12;7.05;;;2.65;;
79570;SDS011;69034;49.444;7.758;2024-03-23T20:15:12;5.38;;;2.05;;
79570;SDS011;69034;49.444;7.758;2024-03-23T20:19:13;5.97;;;1.98;;
79570;SDS011;69034;49.444;7.758;2024-03-23T20:23:14;6.25;;;1.50;;
79570;SDS011;69034;49.444;7.758;2024-03-23T20:27:15;5.13;;;1.95;;
79570;SDS011;69034;49.444;7.758;2024-03-23T20:31:15;5.32;;;1.90;;
79570;SDS011;69034;49.444;7.758;2024-03-23T20:35:16;10.82;;;3.83;;
79570;SDS011;69034;49.444;7.758;2024-03-23T20:39:17;13.98;;;5.38;;
79570;SDS011;69034;49.444;7.758;2024-03-23T20:43:17;7.47;;;2.40;;
79570;SDS011;69034;49.444;7.758;2024-03-23T20:47:18;8.82;;;2.05;;
79570;SDS011;69034;49.444;7.758;2024-03-23T20:51:18;6.63;;;2.70;;
79570;SDS011;69034;49.444;7.758;2024-03-23T20:55:21;7.38;;;3.00;;
79570;SDS011;69034;49.444;7.758;2024-03-23T20:59:22;5.93;;;2.30;;
79570;SDS011;69034;49.444;7.758;2024-03-23T21:03:22;6.53;;;2.08;;
79570;SDS011;69034;49.444;7.758;2024-03-23T21:07:23;5.15;;;1.55;;
79570;SDS011;69034;49.444;7.758;2024-03-23T21:11:26;4.43;;;1.88;;
79570;SDS011;69034;49.444;7.758;2024-03-23T21:15:27;6.55;;;3.05;;
79570;SDS011;69034;49.444;7.758;2024-03-23T21:19:28;4.68;;;1.80;;
79570;SDS011;69034;49.444;7.758;2024-03-23T21:23:29;5.32;;;2.67;;
79570;SDS011;69034;49.444;7.758;2024-03-23T21:27:34;3.92;;;1.40;;
79570;SDS011;69034;49.444;7.758;2024-03-23T21:31:35;4.22;;;1.48;;
79570;SDS011;69034;49.444;7.758;2024-03-23T21:35:35;4.70;;;1.65;;
79570;SDS011;69034;49.444;7.758;2024-03-23T21:39:36;4.18;;;1.20;;
79570;SDS011;69034;49.444;7.758;2024-03-23T21:43:37;2.88;;;1.00;;
79570;SDS011;69034;49.444;7.758;2024-03-23T21:47:37;3.85;;;1.02;;
79570;SDS011;69034;49.444;7.758;2024-03-23T21:51:38;3.17;;;1.02;;
79570;SDS011;69034;49.444;7.758;2024-03-23T21:55:47;2.78;;;1.25;;
79570;SDS011;69034;49.444;7.758;2024-03-23T21:59:51;3.00;;;1.00;;
79570;SDS011;69034;49.444;7.758;2024-03-23T22:03:51;2.40;;;0.95;;
79570;SDS011;69034;49.444;7.758;2024-03-23T22:07:52;2.20;;;0.82;;
79570;SDS011;69034;49.444;7.758;2024-03-23T22:11:52;5.07;;;1.15;;
79570;SDS011;69034;49.444;7.758;2024-03-23T22:15:59;3.53;;;1.08;;
79570;SDS011;69034;49.444;7.758;2024-03-23T22:20:00;2.60;;;1.20;;
79570;SDS011;69034;49.444;7.758;2024-03-23T22:24:01;4.80;;;1.13;;
79570;SDS011;69034;49.444;7.758;2024-03-23T22:28:02;1.48;;;0.70;;
79570;SDS011;69034;49.444;7.758;2024-03-23T22:32:03;5.10;;;1.02;;
79570;SDS011;69034;49.444;7.758;2024-03-23T22:36:04;2.42;;;0.98;;
79570;SDS011;69034;49.444;7.758;2024-03-23T22:40:06;4.13;;;0.90;;
79570;SDS011;69034;49.444;7.758;2024-03-23T22:44:07;4.28;;;1.02;;
79570;SDS011;69034;49.444;7.758;2024-03-23T22:48:07;2.30;;;0.85;;
79570;SDS011;69034;49.444;7.758;2024-03-23T22:52:08;2.83;;;1.17;;
79570;SDS011;69034;49.444;7.758;2024-03-23T22:56:09;3.63;;;1.25;;
79570;SDS011;69034;49.444;7.758;2024-03-23T23:00:10;3.25;;;1.20;;
79570;SDS011;69034;49.444;7.758;2024-03-23T23:04:11;2.78;;;0.90;;
79570;SDS011;69034;49.444;7.758;2024-03-23T23:08:12;7.30;;;1.02;;
79570;SDS011;69034;49.444;7.758;2024-03-23T23:12:13;4.10;;;1.02;;
79570;SDS011;69034;49.444;7.758;2024-03-23T23:16:13;2.53;;;1.10;;
79570;SDS011;69034;49.444;7.758;2024-03-23T23:20:15;3.55;;;1.40;;
79570;SDS011;69034;49.444;7.758;2024-03-23T23:24:16;2.78;;;1.20;;
79570;SDS011;69034;49.444;7.758;2024-03-23T23:28:16;2.33;;;1.08;;
79570;SDS011;69034;49.444;7.758;2024-03-23T23:32:17;8.05;;;1.70;;
79570;SDS011;69034;49.444;7.758;2024-03-23T23:36:17;4.07;;;1.20;;
79570;SDS011;69034;49.444;7.758;2024-03-23T23:40:18;5.07;;;1.80;;
79570;SDS011;69034;49.444;7.758;2024-03-23T23:44:19;4.03;;;1.20;;
79570;SDS011;69034;49.444;7.758;2024-03-23T23:48:20;4.50;;;1.38;;
79570;SDS011;69034;49.444;7.758;2024-03-23T23:52:20;2.60;;;1.02;;
79570;SDS011;69034;49.444;7.758;2024-03-23T23:56:21;2.65;;;0.95;;
